Flight Track Log - Related Links

Times and Time Zones

All times are in EDT time to prevent confusion due to time zone crossing. See the VOZ736 flight status page for this flight to view local times or setup timezone preferences in your user account.

Time Position Orientation Groundspeed Altitude Reporting Facility
EDT Latitude Longitude Course Direction KTS MPH feet Rate Location/Type
Fri 11:00:57 PM -28.1368 153.4941 33° Northeast 165 190 1,500  Level Aus ATC (RADAR)
Fri 11:01:12 PM -28.1260 153.5022 33° Northeast 172 198 1,700 1,269 Climbing Aus ATC (RADAR)
Fri 11:01:49 PM -28.1160 153.5410 33° Northeast 236 272 2,600 1,773 Climbing FlightAware ADS-B
Fri 11:01:56 PM -28.1137 153.5526 78° East 245 282 3,000 2,526 Climbing FlightAware ADS-B
Fri 11:02:08 PM -28.1148 153.5682 94° East 250 288 3,400 1,565 Climbing FlightAware ADS-B
Fri 11:02:19 PM -28.1200 153.5790 118° Southeast 264 304 3,600 1,400 Climbing FlightAware ADS-B
Fri 11:02:38 PM -28.1380 153.5982 137° Southeast 291 335 4,100 1,800 Climbing FlightAware ADS-B
Fri 11:03:09 PM -28.1736 153.6330 139° Southeast 317 365 5,100 2,353 Climbing FlightAware ADS-B
Fri 11:03:29 PM -28.1962 153.6547 140° Southeast 320 368 6,100 3,000 Climbing FlightAware ADS-B
Fri 11:03:45 PM -28.2125 153.6703 140° Southeast 323 372 6,900 2,842 Climbing FlightAware ADS-B
Fri 11:04:07 PM -28.2394 153.6888 149° Southeast 325 374 7,900 2,727 Climbing FlightAware ADS-B
Fri 11:04:18 PM -28.2525 153.6910 172° South 326 375 8,400 2,571 Climbing FlightAware ADS-B
Fri 11:04:28 PM -28.2704 153.6881 188° South 328 377 8,800 2,400 Climbing FlightAware ADS-B
Fri 11:04:38 PM -28.2801 153.6835 203° Southwest 333 383 9,200 2,700 Climbing FlightAware ADS-B
Fri 11:04:48 PM -28.2992 153.6661 219° Southwest 335 386 9,700 3,000 Climbing FlightAware ADS-B
Fri 11:04:58 PM -28.3083 153.6510 235° Southwest 339 390 10,200 2,700 Climbing FlightAware ADS-B
Fri 11:05:28 PM -28.3309 153.6066 240° Southwest 345 397 11,500 2,500 Climbing FlightAware ADS-B
Fri 11:05:58 PM -28.3571 153.5564 239° Southwest 357 411 12,700 2,500 Climbing FlightAware ADS-B
Fri 11:06:28 PM -28.3827 153.5078 239° Southwest 365 420 14,000 2,700 Climbing FlightAware ADS-B
Fri 11:06:58 PM -28.4076 153.4588 240° Southwest 372 428 15,400 2,900 Climbing FlightAware ADS-B
Fri 11:07:28 PM -28.4340 153.4065 240° Southwest 375 432 16,900 2,900 Climbing FlightAware ADS-B
Fri 11:07:58 PM -28.4603 153.3545 240° Southwest 378 435 18,300 2,900 Climbing FlightAware ADS-B
Fri 11:08:28 PM -28.4850 153.3059 240° Southwest 377 434 19,800 2,800 Climbing FlightAware ADS-B
Fri 11:08:58 PM -28.5123 153.2523 240° Southwest 376 433 21,100 2,400 Climbing FlightAware ADS-B
Fri 11:09:28 PM -28.5385 153.2009 240° Southwest 383 441 22,200 1,967 Climbing FlightAware ADS-B
Fri 11:09:59 PM -28.5651 153.1485 240° Southwest 392 451 23,100 1,714 Climbing FlightAware ADS-B
Fri 11:10:38 PM -28.5999 153.0798 240° Southwest 404 465 24,200 1,739 Climbing FlightAware ADS-B
Fri 11:11:08 PM -28.6297 153.0206 240° Southwest 411 473 25,100 1,800 Climbing FlightAware ADS-B
Fri 11:11:38 PM -28.6593 152.9621 240° Southwest 414 476 26,000 1,800 Climbing FlightAware ADS-B
Fri 11:11:48 PM -28.6681 152.9448 240° Southwest 409 471 26,300 1,800 Climbing FlightAware ADS-B
Fri 11:11:58 PM -28.6776 152.9260 240° Southwest 409 471 26,600 2,100 Climbing FlightAware ADS-B
Fri 11:12:08 PM -28.6871 152.9072 240° Southwest 409 471 27,000 2,100 Climbing FlightAware ADS-B
Fri 11:12:18 PM -28.6968 152.8880 240° Southwest 409 471 27,300 1,800 Climbing FlightAware ADS-B
Fri 11:12:28 PM -28.7064 152.8690 240° Southwest 409 471 27,600 1,800 Climbing FlightAware ADS-B
Fri 11:12:38 PM -28.7160 152.8501 240° Southwest 409 471 27,900 1,800 Climbing FlightAware ADS-B
Fri 11:12:48 PM -28.7255 152.8312 240° Southwest 410 472 28,200 1,500 Climbing FlightAware ADS-B
Fri 11:12:58 PM -28.7348 152.8127 240° Southwest 411 473 28,400 1,579 Climbing FlightAware ADS-B
Fri 11:13:07 PM -28.7438 152.7949 240° Southwest 412 474 28,700 1,650 Climbing FlightAware ADS-B
Fri 11:13:38 PM -28.7736 152.7358 240° Southwest 417 480 29,500 1,610 Climbing FlightAware ADS-B
Fri 11:13:48 PM -28.7826 152.7178 240° Southwest 412 474 29,800 2,100 Climbing FlightAware ADS-B
Fri 11:13:58 PM -28.7924 152.6983 240° Southwest 410 472 30,200 2,100 Climbing FlightAware ADS-B
Fri 11:14:08 PM -28.8018 152.6796 240° Southwest 408 470 30,500 2,000 Climbing FlightAware ADS-B
Fri 11:14:16 PM -28.8093 152.6646 240° Southwest 407 468 30,800 2,100 Climbing FlightAware ADS-B
Fri 11:14:28 PM -28.8207 152.6419 240° Southwest 405 466 31,200 2,000 Climbing FlightAware ADS-B
Fri 11:14:37 PM -28.8292 152.6250 240° Southwest 401 461 31,500 2,100 Climbing FlightAware ADS-B
Fri 11:14:48 PM -28.8391 152.6052 240° Southwest 398 458 31,900 2,000 Climbing FlightAware ADS-B
Fri 11:14:58 PM -28.8489 152.5874 238° Southwest 395 455 32,200 1,800 Climbing FlightAware ADS-B
Fri 11:15:18 PM -28.8713 152.5541 232° Southwest 391 450 32,800 1,862 Climbing FlightAware ADS-B
Fri 11:15:27 PM -28.8827 152.5383 230° Southwest 391 450 33,100 1,500 Climbing FlightAware ADS-B
Fri 11:15:38 PM -28.8948 152.5218 230° Southwest 390 449 33,300 1,200 Climbing FlightAware ADS-B
Fri 11:15:47 PM -28.9058 152.5068 230° Southwest 390 449 33,500 1,263 Climbing FlightAware ADS-B
Fri 11:15:57 PM -28.9166 152.4921 230° Southwest 389 448 33,700 1,500 Climbing FlightAware ADS-B
Fri 11:16:07 PM -28.9291 152.4751 230° Southwest 390 449 34,000 1,412 Climbing FlightAware ADS-B
Fri 11:16:14 PM -28.9374 152.4637 230° Southwest 390 449 34,100 1,171 Climbing FlightAware ADS-B
Fri 11:16:48 PM -28.9767 152.4099 230° Southwest 395 455 34,800 1,219 Climbing FlightAware ADS-B
Fri 11:17:18 PM -29.0124 152.3609 230° Southwest 395 455 35,400 1,200 Climbing FlightAware ADS-B
Fri 11:17:48 PM -29.0473 152.3132 230° Southwest 394 453 36,000 1,200 Climbing FlightAware ADS-B
Fri 11:18:18 PM -29.0814 152.2657 231° Southwest 392 451 36,600 1,114 Climbing FlightAware ADS-B
Fri 11:18:58 PM -29.1243 152.2065 230° Southwest 389 448 37,300 943 Climbing FlightAware ADS-B
Fri 11:19:28 PM -29.1600 152.1574 230° Southwest 389 448 37,700 750 Climbing FlightAware ADS-B
Fri 11:19:46 PM -29.1823 152.1267 230° Southwest 390 449 37,900 295 Climbing FlightAware ADS-B
Fri 11:20:29 PM -29.2320 152.0579 230° Southwest 398 458 38,000 143 Climbing FlightAware ADS-B
Fri 11:21:10 PM -29.2800 151.9911 230° Southwest 397 457 38,100  Climbing Aus ATC (RADAR)
Fri 11:21:12 PM -29.2740 152.0000 230° Southwest 398 458 38,000 -158 Descending FlightAware ADS-B
Fri 11:21:48 PM -29.3100 151.9500 230° Southwest 398 458 38,000  Level FlightAware ADS-B
Fri 11:22:24 PM -29.3470 151.9010 229° Southwest 398 458 38,000  Level FlightAware ADS-B
Fri 11:23:00 PM -29.3830 151.8510 230° Southwest 398 458 38,000  Level FlightAware ADS-B
Fri 11:23:37 PM -29.4200 151.8000 230° Southwest 398 458 38,000  Level FlightAware ADS-B
Fri 11:24:18 PM -29.2470 152.0370 50° Northeast 391 450 38,000  Level FlightAware ADS-B
Fri 11:24:49 PM -29.5388 151.6423 230° Southwest 396 456 38,000  Level FlightAware ADS-B
Fri 11:25:28 PM -29.5942 151.5923 218° Southwest 394 453 38,000  Level FlightAware ADS-B
Fri 11:25:58 PM -29.6386 151.5521 218° Southwest 392 451 38,000  Level FlightAware ADS-B
Fri 11:26:28 PM -29.6755 151.5188 218° Southwest 392 451 38,000  Level FlightAware ADS-B
Fri 11:26:58 PM -29.7243 151.4746 218° Southwest 390 449 38,000  Level FlightAware ADS-B
Fri 11:27:38 PM -29.7791 151.4247 218° Southwest 390 449 38,000  Level FlightAware ADS-B
Fri 11:28:18 PM -29.8369 151.3722 218° Southwest 389 448 38,000  Level FlightAware ADS-B
Fri 11:28:48 PM -29.8787 151.3344 218° Southwest 388 447 38,000  Level FlightAware ADS-B
Fri 11:29:18 PM -29.9196 151.2971 218° Southwest 387 445 38,000  Level FlightAware ADS-B
Fri 11:29:58 PM -29.9754 151.2462 218° Southwest 385 443 38,000  Level FlightAware ADS-B
Fri 11:30:28 PM -30.0150 151.2100 218° Southwest 384 442 38,000  Level FlightAware ADS-B
Fri 11:31:08 PM -30.0668 151.1626 218° Southwest 384 442 38,000  Level FlightAware ADS-B
Fri 11:31:51 PM -30.1260 151.1090 218° Southwest 382 440 38,000 79 Level FlightAware ADS-B
Fri 11:32:24 PM -30.1783 151.0600 218° Southwest 382 440 38,100  Climbing Aus ATC (RADAR)
Fri 11:32:27 PM -30.1680 151.0710 218° Southwest 382 440 38,000  Descending FlightAware ADS-B
Fri 11:32:59 PM -30.2267 151.0153 218° Southwest 383 441 38,100  Climbing Aus ATC (RADAR)
Fri 11:33:03 PM -30.2110 151.0320 218° Southwest 382 440 38,000 -150 Descending FlightAware ADS-B
Fri 11:33:39 PM -30.2530 150.9940 218° Southwest 382 440 38,000  Level FlightAware ADS-B
Fri 11:34:15 PM -30.2960 150.9550 218° Southwest 382 440 38,000  Level FlightAware ADS-B
Fri 11:34:52 PM -30.3400 150.9160 217° Southwest 382 440 38,000  Level FlightAware ADS-B
Fri 11:35:28 PM -30.3820 150.8770 219° Southwest 382 440 38,000  Level FlightAware ADS-B
Fri 11:36:04 PM -30.4250 150.8380 218° Southwest 382 440 38,000  Level FlightAware ADS-B
Fri 11:36:40 PM -30.4680 150.8000 217° Southwest 382 440 38,000  Level FlightAware ADS-B
Fri 11:37:16 PM -30.5100 150.7610 219° Southwest 382 440 38,000  Level FlightAware ADS-B
Fri 11:37:52 PM -30.5530 150.7220 218° Southwest 382 440 38,000  Level FlightAware ADS-B
Fri 11:38:28 PM -30.5950 150.6840 218° Southwest 382 440 38,000  Level FlightAware ADS-B
Fri 11:39:04 PM -30.6380 150.6450 218° Southwest 382 440 38,000  Level FlightAware ADS-B
Fri 11:39:45 PM -30.7770 150.5070 220° Southwest 381 438 38,000  Level FlightAware ADS-B
Fri 11:40:21 PM -30.8190 150.4670 219° Southwest 381 438 38,000  Level FlightAware ADS-B
Fri 11:40:57 PM -30.8610 150.4280 219° Southwest 381 438 38,000  Level FlightAware ADS-B
Fri 11:41:30 PM -30.9380 150.3560 219° Southwest 389 448 38,000  Level FlightAware ADS-B
Fri 11:42:06 PM -30.9850 150.3120 219° Southwest 390 449 38,000  Level FlightAware ADS-B
Fri 11:42:51 PM -31.0490 150.2530 218° Southwest 391 450 38,000  Level FlightAware ADS-B
Fri 11:43:28 PM -31.1070 150.1980 219° Southwest 393 452 38,000  Level FlightAware ADS-B
Fri 11:44:08 PM -31.1630 150.1450 219° Southwest 393 452 38,000 85 Level FlightAware ADS-B
Fri 11:44:39 PM -31.2075 150.1027 219° Southwest 387 445 38,100  Climbing Aus ATC (RADAR)
Fri 11:44:57 PM -31.2310 150.0810 219° Southwest 394 453 38,000 -115 Descending FlightAware ADS-B
Fri 11:45:31 PM -31.2810 150.0340 219° Southwest 393 452 38,000 90 Level FlightAware ADS-B
Fri 11:46:04 PM -31.3280 149.9898 219° Southwest 386 444 38,100  Climbing Aus ATC (RADAR)
Fri 11:46:06 PM -31.3310 149.9870 219° Southwest 393 452 38,000 -162 Descending FlightAware ADS-B
Fri 11:46:41 PM -31.3790 149.9410 219° Southwest 394 453 38,000  Level FlightAware ADS-B
Fri 11:47:16 PM -31.4290 149.8940 219° Southwest 394 453 38,000  Level FlightAware ADS-B
Fri 11:47:52 PM -31.4790 149.8460 219° Southwest 393 452 38,000  Level FlightAware ADS-B
Fri 11:48:27 PM -31.5250 149.8020 219° Southwest 391 450 38,000 162 Level FlightAware ADS-B
Fri 11:48:29 PM -31.5326 149.7951 219° Southwest 385 443 38,100  Climbing Aus ATC (RADAR)
Fri 11:49:02 PM -31.5790 149.7520 219° Southwest 383 441 38,000  Descending FlightAware ADS-B
Fri 11:49:04 PM -31.5816 149.7490 219° Southwest 384 442 38,100  Climbing Aus ATC (RADAR)
Fri 11:49:37 PM -31.6280 149.7050 219° Southwest 383 441 38,000 -88 Descending FlightAware ADS-B
Fri 11:50:12 PM -31.6750 149.6590 220° Southwest 383 441 38,000  Level FlightAware ADS-B
Fri 11:50:47 PM -31.7260 149.6110 219° Southwest 382 440 38,000  Level FlightAware ADS-B
Fri 11:51:22 PM -31.7720 149.5670 219° Southwest 381 438 38,000  Level FlightAware ADS-B
Fri 11:51:57 PM -31.8220 149.5180 219° Southwest 380 437 38,000 150 Level FlightAware ADS-B
Fri 11:52:02 PM -31.8297 149.5108 219° Southwest 386 444 38,100  Climbing Aus ATC (RADAR)
Fri 11:52:45 PM -31.8880 149.4550 219° Southwest 327 376 38,000 -77 Descending FlightAware ADS-B
Fri 11:53:20 PM -31.9310 149.4140 219° Southwest 388 447 38,000  Level FlightAware ADS-B
Fri 11:53:56 PM -31.9840 149.3630 219° Southwest 387 445 38,000  Level FlightAware ADS-B
Fri 11:54:30 PM -32.0330 149.3150 220° Southwest 387 445 38,000 92 Level FlightAware ADS-B
Fri 11:55:01 PM -32.0784 149.2717 220° Southwest 384 442 38,100  Climbing Aus ATC (RADAR)
Fri 11:55:09 PM -32.0880 149.2630 220° Southwest 387 445 38,000 -140 Descending FlightAware ADS-B
Fri 11:55:44 PM -32.1320 149.2200 220° Southwest 385 443 38,000  Level FlightAware ADS-B
Fri 11:56:14 PM -32.1750 149.1780 220° Southwest 384 442 38,000  Level FlightAware ADS-B
Fri 11:56:54 PM -32.2300 149.1250 219° Southwest 384 442 38,000  Level FlightAware ADS-B
Fri 11:57:34 PM -32.2830 149.0730 220° Southwest 384 442 38,000  Level FlightAware ADS-B
Fri 11:58:09 PM -32.3350 149.0230 219° Southwest 386 444 38,000  Level FlightAware ADS-B
Fri 11:58:44 PM -32.3810 148.9770 220° Southwest 386 444 38,000  Level FlightAware ADS-B
Fri 11:59:19 PM -32.4280 148.9320 219° Southwest 387 445 38,000  Level FlightAware ADS-B
Fri 11:59:53 PM -32.4770 148.8840 220° Southwest 388 447 38,000  Level FlightAware ADS-B
Sat 12:00:33 AM -32.5330 148.8290 220° Southwest 390 449 38,000 140 Level FlightAware ADS-B
Sat 12:00:36 AM -32.5388 148.8232 220° Southwest 386 444 38,100  Climbing Aus ATC (RADAR)
Sat 12:01:13 AM -32.5870 148.7760 220° Southwest 391 450 38,000 -83 Descending FlightAware ADS-B
Sat 12:01:48 AM -32.6380 148.7260 220° Southwest 392 451 38,000  Level FlightAware ADS-B
Sat 12:02:18 AM -32.6790 148.6860 219° Southwest 393 452 38,000  Level FlightAware ADS-B
Sat 12:02:57 AM -32.7350 148.6310 220° Southwest 394 453 38,000  Level FlightAware ADS-B
Sat 12:03:27 AM -32.7780 148.5880 220° Southwest 394 453 38,000 -171 Level FlightAware ADS-B
Sat 12:03:32 AM -32.7848 148.5814 220° Southwest 388 447 37,900  Descending Aus ATC (RADAR)
Sat 12:04:07 AM -32.8330 148.5340 220° Southwest 394 453 38,000 86 Climbing FlightAware ADS-B
Sat 12:04:42 AM -32.8820 148.4840 221° Southwest 394 453 38,000  Level FlightAware ADS-B
Sat 12:05:17 AM -32.9300 148.4370 219° Southwest 394 453 38,000  Level FlightAware ADS-B
Sat 12:05:52 AM -32.9810 148.3870 219° Southwest 386 444 38,000  Level FlightAware ADS-B
Sat 12:06:23 AM -33.0230 148.3450 220° Southwest 385 443 38,000  Level FlightAware ADS-B
Sat 12:07:07 AM -33.0840 148.2840 220° Southwest 385 443 38,000  Level FlightAware ADS-B
Sat 12:07:42 AM -33.1320 148.2360 220° Southwest 385 443 38,000  Level FlightAware ADS-B
Sat 12:08:17 AM -33.1830 148.1890 218° Southwest 386 444 38,000 -92 Level FlightAware ADS-B
Sat 12:08:47 AM -33.2266 148.1494 218° Southwest 389 448 37,900  Descending Aus ATC (RADAR)
Sat 12:08:53 AM -33.2340 148.1420 218° Southwest 392 451 38,000 146 Climbing FlightAware ADS-B
Sat 12:09:28 AM -33.2860 148.0950 217° Southwest 387 445 38,000  Level FlightAware ADS-B
Sat 12:10:05 AM -33.3360 148.0480 218° Southwest 393 452 38,000  Level FlightAware ADS-B
Sat 12:10:38 AM -33.3860 148.0020 218° Southwest 392 451 38,000  Level FlightAware ADS-B
Sat 12:11:22 AM -33.4270 147.9630 218° Southwest 393 452 38,000  Level FlightAware ADS-B
Sat 12:12:02 AM -33.5030 147.8920 218° Southwest 393 452 38,000  Level FlightAware ADS-B
Sat 12:12:37 AM -33.5560 147.8440 217° Southwest 393 452 38,000  Level FlightAware ADS-B
Sat 12:13:11 AM -33.6010 147.8020 218° Southwest 394 453 38,000 -83 Level FlightAware ADS-B
Sat 12:13:49 AM -33.6622 147.7448 218° Southwest 394 453 37,900  Descending Aus ATC (RADAR)
Sat 12:13:53 AM -33.6660 147.7420 218° Southwest 393 452 38,000  Climbing FlightAware ADS-B
Sat 12:14:24 AM -33.7119 147.6980 218° Southwest 390 449 37,900  Descending Aus ATC (RADAR)
Sat 12:14:28 AM -33.7170 147.6930 218° Southwest 393 452 38,000 154 Climbing FlightAware ADS-B
Sat 12:15:03 AM -33.7660 147.6480 217° Southwest 388 447 38,000  Level FlightAware ADS-B
Sat 12:15:38 AM -33.8170 147.5990 219° Southwest 389 448 38,000  Level FlightAware ADS-B
Sat 12:16:13 AM -33.8670 147.5530 217° Southwest 389 448 38,000  Level FlightAware ADS-B
Sat 12:16:46 AM -33.9152 147.5074 217° Southwest 391 450 38,000  Level Aus ATC (RADAR)
Sat 12:16:48 AM -33.9180 147.5050 217° Southwest 389 448 38,000  Level FlightAware ADS-B
Sat 12:17:21 AM -33.9658 147.4596 217° Southwest 394 453 38,000  Level Aus ATC (RADAR)
Sat 12:17:24 AM -33.9680 147.4570 217° Southwest 389 448 38,000  Level FlightAware ADS-B
Sat 12:17:59 AM -34.0210 147.4070 218° Southwest 389 448 38,000 -86 Level FlightAware ADS-B
Sat 12:18:34 AM -34.0716 147.3594 218° Southwest 393 452 37,900  Descending Aus ATC (RADAR)
Sat 12:18:34 AM -34.0700 147.3610 218° Southwest 390 449 38,000 171 Climbing FlightAware ADS-B
Sat 12:19:09 AM -34.1210 147.3120 218° Southwest 391 450 38,000  Level FlightAware ADS-B
Sat 12:19:44 AM -34.1710 147.2650 218° Southwest 391 450 38,000  Level FlightAware ADS-B
Sat 12:20:15 AM -34.2178 147.2209 218° Southwest 395 455 38,000  Level Aus ATC (RADAR)
Sat 12:20:19 AM -34.2220 147.2160 218° Southwest 391 450 38,000  Level FlightAware ADS-B
Sat 12:20:50 AM -34.2682 147.1733 218° Southwest 393 452 38,000  Level Aus ATC (RADAR)
Sat 12:20:55 AM -34.2730 147.1680 218° Southwest 396 456 38,000  Level FlightAware ADS-B
Sat 12:21:29 AM -34.3220 147.1210 218° Southwest 395 455 38,000  Level FlightAware ADS-B
Sat 12:22:00 AM -34.3660 147.0790 218° Southwest 394 453 38,000  Level FlightAware ADS-B
Sat 12:22:39 AM -34.4220 147.0260 218° Southwest 375 432 38,000  Level FlightAware ADS-B
Sat 12:23:15 AM -34.4700 146.9800 218° Southwest 368 423 38,000  Level FlightAware ADS-B
Sat 12:23:49 AM -34.5160 146.9360 218° Southwest 357 411 38,000  Level FlightAware ADS-B
Sat 12:24:24 AM -34.5620 146.8910 219° Southwest 356 410 38,000  Level FlightAware ADS-B
Sat 12:24:59 AM -34.6080 146.8470 218° Southwest 356 410 38,000  Level FlightAware ADS-B
Sat 12:25:35 AM -34.6540 146.8030 218° Southwest 356 410 38,000  Level FlightAware ADS-B
Sat 12:26:10 AM -34.7010 146.7580 218° Southwest 356 410 38,000  Level FlightAware ADS-B
Sat 12:26:51 AM -34.7540 146.7060 218° Southwest 356 410 38,000 -143 Level FlightAware ADS-B
Sat 12:26:52 AM -34.7595 146.7026 218° Southwest 358 412 37,900  Descending Aus ATC (RADAR)
Sat 12:27:25 AM -34.7990 146.6630 218° Southwest 358 412 38,000  Climbing FlightAware ADS-B
Sat 12:27:27 AM -34.8065 146.6582 218° Southwest 364 419 37,900  Descending Aus ATC (RADAR)
Sat 12:28:01 AM -34.8460 146.6170 219° Southwest 358 412 38,000 88 Climbing FlightAware ADS-B
Sat 12:28:35 AM -34.8920 146.5720 219° Southwest 360 414 38,000 -91 Level FlightAware ADS-B
Sat 12:29:07 AM -34.9377 146.5299 219° Southwest 368 423 37,900  Descending Aus ATC (RADAR)
Sat 12:29:11 AM -34.9390 146.5270 219° Southwest 367 422 38,000  Climbing FlightAware ADS-B
Sat 12:29:42 AM -34.9840 146.4848 219° Southwest 366 421 37,900  Descending Aus ATC (RADAR)
Sat 12:29:45 AM -34.9840 146.4830 219° Southwest 367 422 38,000 158 Climbing FlightAware ADS-B
Sat 12:30:20 AM -35.0320 146.4360 219° Southwest 361 415 38,000  Level FlightAware ADS-B
Sat 12:30:55 AM -35.0780 146.3910 219° Southwest 368 423 38,000  Level FlightAware ADS-B
Sat 12:31:30 AM -35.1250 146.3450 219° Southwest 369 425 38,000  Level FlightAware ADS-B
Sat 12:32:06 AM -35.1700 146.3010 219° Southwest 369 425 38,000 -162 Level FlightAware ADS-B
Sat 12:32:07 AM -35.1755 146.2965 219° Southwest 369 425 37,900  Descending Aus ATC (RADAR)
Sat 12:32:40 AM -35.2180 146.2540 219° Southwest 369 425 38,000 162 Climbing FlightAware ADS-B
Sat 12:32:44 AM -35.2239 146.2489 219° Southwest 367 422 38,000  Level Aus ATC (RADAR)
Sat 12:33:15 AM -35.2640 146.2090 219° Southwest 368 423 38,000  Level FlightAware ADS-B
Sat 12:33:50 AM -35.3110 146.1630 219° Southwest 361 415 38,000 -162 Level FlightAware ADS-B
Sat 12:33:52 AM -35.3133 146.1591 219° Southwest 363 418 37,900  Descending Aus ATC (RADAR)
Sat 12:34:25 AM -35.3570 146.1170 219° Southwest 360 414 38,000 88 Climbing FlightAware ADS-B
Sat 12:35:00 AM -35.4050 146.0700 219° Southwest 359 413 38,000  Level FlightAware ADS-B
Sat 12:35:35 AM -35.4500 146.0260 219° Southwest 359 413 38,000  Level FlightAware ADS-B
Sat 12:35:39 AM -35.4546 146.0219 219° Southwest 364 419 38,000  Level Aus ATC (RADAR)
Sat 12:36:10 AM -35.4960 145.9800 219° Southwest 358 412 38,000  Level FlightAware ADS-B
Sat 12:36:13 AM -35.5003 145.9763 219° Southwest 363 418 38,000  Level Aus ATC (RADAR)
Sat 12:36:46 AM -35.5430 145.9340 219° Southwest 357 411 38,000  Level FlightAware ADS-B
Sat 12:37:21 AM -35.5890 145.8880 219° Southwest 357 411 38,000  Level FlightAware ADS-B
Sat 12:37:56 AM -35.6340 145.8430 219° Southwest 358 412 38,000  Level FlightAware ADS-B
Sat 12:38:31 AM -35.6800 145.7960 220° Southwest 358 412 38,000  Level FlightAware ADS-B
Sat 12:39:06 AM -35.7260 145.7510 218° Southwest 358 412 38,000  Level FlightAware ADS-B
Sat 12:39:41 AM -35.7720 145.7050 218° Southwest 358 412 38,000  Level FlightAware ADS-B
Sat 12:39:43 AM -35.7744 145.7035 218° Southwest 362 417 38,000  Level Aus ATC (RADAR)
Sat 12:40:16 AM -35.8170 145.6600 219° Southwest 359 413 38,000  Level FlightAware ADS-B
Sat 12:40:51 AM -35.8640 145.6130 219° Southwest 359 413 38,000  Level FlightAware ADS-B
Sat 12:41:31 AM -35.9150 145.5610 220° Southwest 361 415 38,000  Level FlightAware ADS-B
Sat 12:42:06 AM -35.9629 145.5148 220° Southwest 360 414 38,000 -171 Level Aus ATC (RADAR)
Sat 12:42:06 AM -35.9620 145.5140 220° Southwest 354 407 37,900 -3,000 Descending FlightAware ADS-B
Sat 12:42:46 AM -36.0140 145.4620 219° Southwest 364 419 36,000 -2,400 Descending FlightAware ADS-B
Sat 12:43:16 AM -36.0540 145.4220 219° Southwest 356 410 35,100 -1,938 Descending FlightAware ADS-B
Sat 12:43:51 AM -36.0980 145.3770 220° Southwest 357 411 33,900 -1,944 Descending FlightAware ADS-B
Sat 12:44:27 AM -36.1447 145.3307 220° Southwest 353 406 32,800 -1,800 Descending Aus ATC (RADAR)
Sat 12:44:31 AM -36.1500 145.3250 220° Southwest 341 392 32,700 -1,886 Descending FlightAware ADS-B
Sat 12:45:02 AM -36.1870 145.2870 220° Southwest 337 388 31,700 -1,875 Descending FlightAware ADS-B
Sat 12:45:03 AM -36.1879 145.2867 220° Southwest 346 398 31,700 -1,833 Level Aus ATC (RADAR)
Sat 12:45:38 AM -36.2300 145.2430 220° Southwest 339 390 30,600 -1,913 Descending FlightAware ADS-B
Sat 12:46:12 AM -36.2720 145.2010 219° Southwest 336 387 29,500 -1,913 Descending FlightAware ADS-B
Sat 12:46:47 AM -36.3120 145.1600 220° Southwest 333 383 28,400 -1,944 Descending FlightAware ADS-B
Sat 12:47:23 AM -36.3560 145.1150 219° Southwest 329 379 27,200 -1,920 Descending FlightAware ADS-B
Sat 12:48:02 AM -36.4030 145.0680 219° Southwest 318 366 26,000 -2,045 Descending FlightAware ADS-B
Sat 12:48:07 AM -36.4081 145.0616 219° Southwest 327 376 25,700 -1,500 Descending Aus ATC (RADAR)
Sat 12:48:42 AM -36.4470 145.0210 221° Southwest 311 358 25,000 -1,662 Descending FlightAware ADS-B
Sat 12:49:12 AM -36.4807 144.9872 221° Southwest 313 360 23,900 -1,875 Descending Aus ATC (RADAR)
Sat 12:49:14 AM -36.4830 144.9850 221° Southwest 309 356 24,000 -2,057 Climbing FlightAware ADS-B
Sat 12:49:47 AM -36.5194 144.9481 221° Southwest 312 359 22,700 -2,057 Descending Aus ATC (RADAR)
Sat 12:49:49 AM -36.5210 144.9460 221° Southwest 314 361 22,800 -1,946 Climbing FlightAware ADS-B
Sat 12:50:24 AM -36.5610 144.9060 219° Southwest 320 368 21,500 -1,775 Descending FlightAware ADS-B
Sat 12:51:00 AM -36.6010 144.8640 220° Southwest 323 372 20,700 -1,029 Descending FlightAware ADS-B
Sat 12:51:34 AM -36.6400 144.8240 219° Southwest 315 362 20,300 -696 Descending FlightAware ADS-B
Sat 12:52:09 AM -36.6800 144.7830 219° Southwest 313 360 19,900 -896 Descending FlightAware ADS-B
Sat 12:52:41 AM -36.7163 144.7444 219° Southwest 311 358 19,300 -857 Descending Aus ATC (RADAR)
Sat 12:52:44 AM -36.7190 144.7420 219° Southwest 305 351 19,400 -1,371 Climbing FlightAware ADS-B
Sat 12:53:16 AM -36.7538 144.7059 219° Southwest 302 348 18,500 -1,371 Descending Aus ATC (RADAR)
Sat 12:53:19 AM -36.7550 144.7050 219° Southwest 298 343 18,600 -1,579 Climbing FlightAware ADS-B
Sat 12:53:54 AM -36.7940 144.6660 219° Southwest 306 352 17,500 -1,733 Descending FlightAware ADS-B
Sat 12:54:04 AM -36.8070 144.6600 200° South 314 361 17,300 -1,500 Descending FlightAware ADS-B
Sat 12:54:14 AM -36.8220 144.6570 189° South 323 372 17,000 -1,543 Descending FlightAware ADS-B
Sat 12:54:39 AM -36.8600 144.6630 173° South 330 380 16,400 -1,527 Descending FlightAware ADS-B
Sat 12:55:09 AM -36.9050 144.6730 170° South 325 374 15,600 -1,569 Descending FlightAware ADS-B
Sat 12:55:44 AM -36.9560 144.6840 170° South 320 368 14,700 -1,520 Descending FlightAware ADS-B
Sat 12:56:24 AM -37.0140 144.6970 170° South 315 362 13,700 -1,457 Descending FlightAware ADS-B
Sat 12:56:54 AM -37.0570 144.7070 169° South 312 359 13,000 -1,548 Descending FlightAware ADS-B
Sat 12:57:26 AM -37.1025 144.7166 169° South 308 354 12,100 -1,371 Descending Aus ATC (RADAR)
Sat 12:57:29 AM -37.1060 144.7180 169° South 305 351 12,200 -1,535 Climbing FlightAware ADS-B
Sat 12:58:09 AM -37.1620 144.7300 170° South 307 353 11,000 -1,760 Descending FlightAware ADS-B
Sat 12:58:44 AM -37.2110 144.7410 170° South 307 353 10,000 -1,467 Descending FlightAware ADS-B
Sat 12:58:54 AM -37.2250 144.7440 170° South 307 353 9,900 -800 Descending FlightAware ADS-B
Sat 12:59:14 AM -37.2530 144.7500 170° South 308 354 9,600 -1,029 Descending FlightAware ADS-B
Sat 12:59:29 AM -37.2740 144.7540 171° South 307 353 9,300 -857 Descending FlightAware ADS-B
Sat 12:59:49 AM -37.3030 144.7600 171° South 309 356 9,100 -840 Descending FlightAware ADS-B
Sat 01:00:19 AM -37.3440 144.7650 174° South 300 345 8,600 -840 Descending FlightAware ADS-B
Sat 01:00:39 AM -37.3720 144.7630 183° South 297 342 8,400 -686 Descending FlightAware ADS-B
Sat 01:00:54 AM -37.3930 144.7610 184° South 295 339 8,200 -857 Descending FlightAware ADS-B
Sat 01:01:14 AM -37.4200 144.7580 185° South 294 338 7,900 -750 Descending FlightAware ADS-B
Sat 01:01:34 AM -37.4470 144.7560 183° South 293 337 7,700 -600 Descending FlightAware ADS-B
Sat 01:02:04 AM -37.4870 144.7520 185° South 292 336 7,400 -600 Descending FlightAware ADS-B
Sat 01:02:24 AM -37.5140 144.7490 185° South 292 336 7,200 -686 Descending FlightAware ADS-B
Sat 01:02:39 AM -37.5340 144.7470 185° South 292 336 7,000 -686 Descending FlightAware ADS-B
Sat 01:02:59 AM -37.5610 144.7440 185° South 291 335 6,800 -450 Descending FlightAware ADS-B
Sat 01:03:19 AM -37.5880 144.7410 185° South 291 335 6,700 -267 Descending FlightAware ADS-B
Sat 01:03:44 AM -37.6210 144.7380 184° South 291 335 6,600 -267 Descending FlightAware ADS-B
Sat 01:04:04 AM -37.6470 144.7360 183° South 280 322 6,500 -600 Descending FlightAware ADS-B
Sat 01:04:24 AM -37.6730 144.7330 185° South 267 307 6,200 -686 Descending FlightAware ADS-B
Sat 01:04:39 AM -37.6910 144.7320 183° South 259 298 6,100 -686 Descending FlightAware ADS-B
Sat 01:04:59 AM -37.7150 144.7300 184° South 254 292 5,800 -800 Descending FlightAware ADS-B
Sat 01:05:24 AM -37.7440 144.7290 182° South 247 284 5,500 -857 Descending FlightAware ADS-B
Sat 01:05:34 AM -37.7550 144.7290 180° South 248 285 5,300 -1,200 Descending FlightAware ADS-B
Sat 01:05:54 AM -37.7780 144.7290 180° South 252 290 4,900 -1,091 Descending FlightAware ADS-B
Sat 01:06:29 AM -37.8180 144.7370 171° South 265 305 4,300 -1,050 Descending FlightAware ADS-B
Sat 01:06:34 AM -37.8230 144.7430 137° Southeast 265 305 4,200 -1,000 Descending FlightAware ADS-B
Sat 01:06:59 AM -37.8430 144.7700 133° Southeast 262 302 3,800 -667 Descending FlightAware ADS-B
Sat 01:07:19 AM -37.8590 144.7920 133° Southeast 254 292 3,700 -343 Descending FlightAware ADS-B
Sat 01:07:34 AM -37.8700 144.8080 131° Southeast 252 290 3,600 -480 Descending FlightAware ADS-B
Sat 01:07:44 AM -37.8750 144.8230 113° Southeast 243 280 3,500 -400 Descending FlightAware ADS-B
Sat 01:07:49 AM -37.8760 144.8300 100° East 239 275 3,500 -240 Level FlightAware ADS-B
Sat 01:08:09 AM -37.8710 144.8530 75° East 219 252 3,400 -480 Descending FlightAware ADS-B
Sat 01:08:14 AM -37.8670 144.8600 54° Northeast 215 247 3,300 -800 Descending FlightAware ADS-B
Sat 01:08:24 AM -37.8580 144.8670 32° Northeast 207 238 3,200 -300 Descending FlightAware ADS-B
Sat 01:08:34 AM -37.8490 144.8700 15° North 204 235 3,200  Level FlightAware ADS-B
Sat 01:08:44 AM -37.8400 144.8710 North 195 224 3,200  Level FlightAware ADS-B
Sat 01:08:59 AM -37.8270 144.8700 357° North 178 205 3,200 -343 Level FlightAware ADS-B
Sat 01:09:19 AM -37.8120 144.8670 351° North 170 196 3,000 -750 Descending FlightAware ADS-B
Sat 01:09:39 AM -37.7980 144.8640 350° North 165 190 2,700 -900 Descending FlightAware ADS-B
Sat 01:09:59 AM -37.7840 144.8610 350° North 155 178 2,400 -900 Descending FlightAware ADS-B
Sat 01:10:19 AM -37.7700 144.8570 347° North 143 165 2,100 -1,029 Descending FlightAware ADS-B
Sat 01:10:34 AM -37.7590 144.8550 352° North 139 160 1,800 -833 Descending FlightAware ADS-B
Sat 01:10:55 AM -37.7470 144.8530 352° North 131 151 1,600 -536 Descending FlightAware ADS-B
Sat 01:11:30 AM -37.7250 144.8480 350° North 128 147 1,300 -600 Descending FlightAware ADS-B
Sat 01:11:45 AM -37.7170 144.8470 354° North 129 148 1,100 -649 Descending FlightAware ADS-B
Sat 01:12:07 AM -37.7060 144.8450 352° North 132 152 900 -571 Descending FlightAware ADS-B
Sat 01:12:27 AM -37.6910 144.8420 351° North 127 146 700 -600 Descending FlightAware ADS-B
Sat 01:12:47 AM -37.6810 144.8400 351° North 131 151 500 -600 Descending FlightAware ADS-B
Sat 01:13:24 AM -37.6660 144.8370 351° North 92 106 -811 Descending FlightAware ADS-B

Login

Don't have an account? Register now (free) for customized features, flight alerts, and more!